Time;durP1;ratioP1;P1;durP2;ratioP2;P2;SDS_P1;SDS_P2;PMS_P1;PMS_P2;Temp;Humidity;BMP_temperature;BMP_pressure;BME280_temperature;BME280_humidity;BME280_pressure;Samples;Min_cycle;Max_cycle;Signal;HPM_P1;HPM_P2
2022/07/01 00:02:20;;;;;;;36.37;24.10;;;;;;;;;;7745025;22;20482;-54
2022/07/01 00:05:20;;;;;;;34.60;23.50;;;;;;;;;;7745799;23;20016;-52
2022/07/01 00:08:21;;;;;;;34.13;23.37;;;;;;;;;;7743724;22;20026;-52
2022/07/01 00:11:21;;;;;;;32.80;23.60;;;;;;;;;;7740886;23;20020;-50
2022/07/01 00:14:22;;;;;;;30.87;22.33;;;;;;;;;;7742233;22;20020;-50
2022/07/01 00:17:23;;;;;;;30.57;24.10;;;;;;;;;;7740536;22;20328;-52
2022/07/01 00:20:23;;;;;;;31.73;23.27;;;;;;;;;;7742283;23;20024;-51
2022/07/01 00:23:24;;;;;;;32.47;23.40;;;;;;;;;;7740445;22;20020;-52
2022/07/01 00:26:25;;;;;;;33.60;23.33;;;;;;;;;;7739674;23;20132;-51
2022/07/01 00:29:27;;;;;;;34.15;24.65;;;;;;;;;;7741702;22;20055;-52
2022/07/01 00:32:28;;;;;;;35.60;24.73;;;;;;;;;;7739922;23;20305;-52
2022/07/01 00:35:28;;;;;;;32.93;24.30;;;;;;;;;;7744198;22;20027;-54
2022/07/01 00:38:29;;;;;;;37.50;24.13;;;;;;;;;;7744769;23;20065;-49
2022/07/01 00:41:29;;;;;;;29.00;22.07;;;;;;;;;;7746260;23;20050;-48
2022/07/01 00:44:30;;;;;;;29.43;22.90;;;;;;;;;;7745989;23;20039;-55
2022/07/01 00:47:31;;;;;;;31.77;23.23;;;;;;;;;;7745789;23;20102;-49
2022/07/01 00:50:32;;;;;;;27.40;21.33;;;;;;;;;;7745653;23;20031;-54
2022/07/01 00:53:32;;;;;;;30.33;22.10;;;;;;;;;;7745293;23;20020;-48
2022/07/01 00:56:33;;;;;;;31.53;23.40;;;;;;;;;;7743821;23;20031;-54
2022/07/01 00:59:35;;;;;;;32.88;24.17;;;;;;;;;;7744630;23;20238;-50
2022/07/01 01:02:36;;;;;;;;;;;;;;;;;;7746771;23;20019;-49
2022/07/01 01:05:38;;;;;;;31.20;23.42;;;;;;;;;;7742514;23;19919;-51
2022/07/01 01:08:39;;;;;;;30.63;21.58;;;;;;;;;;7738611;23;20074;-50
2022/07/01 01:11:39;;;;;;;29.50;23.03;;;;;;;;;;7741285;23;20332;-50
2022/07/01 01:14:44;;;;;;;33.77;23.57;;;;;;;;;;7739791;23;20078;-51
2022/07/01 01:17:46;;;;;;;31.55;22.02;;;;;;;;;;7737949;23;20507;-52
2022/07/01 01:20:47;;;;;;;29.02;22.10;;;;;;;;;;7741574;23;20324;-50
2022/07/01 01:23:47;;;;;;;32.97;22.90;;;;;;;;;;7739937;23;20023;-49
2022/07/01 01:26:48;;;;;;;31.13;23.03;;;;;;;;;;7739395;23;20517;-48
2022/07/01 01:29:49;;;;;;;30.27;22.60;;;;;;;;;;7741306;23;20024;-49
2022/07/01 01:32:49;;;;;;;30.13;23.47;;;;;;;;;;7739798;23;20012;-48
2022/07/01 01:35:50;;;;;;;27.50;21.10;;;;;;;;;;7739362;23;20020;-51
2022/07/01 01:38:51;;;;;;;27.50;21.30;;;;;;;;;;7740156;23;20098;-51
2022/07/01 01:41:52;;;;;;;30.40;21.50;;;;;;;;;;7738914;23;20020;-52
2022/07/01 01:44:54;;;;;;;27.63;21.17;;;;;;;;;;7740917;23;20027;-50
2022/07/01 01:47:54;;;;;;;29.83;21.40;;;;;;;;;;7741500;23;20024;-50
2022/07/01 01:50:55;;;;;;;29.50;21.53;;;;;;;;;;7738629;23;20016;-49
2022/07/01 01:53:56;;;;;;;25.00;20.37;;;;;;;;;;7745102;23;20024;-51
2022/07/01 01:56:57;;;;;;;25.95;19.77;;;;;;;;;;7739828;23;20020;-49
2022/07/01 01:59:57;;;;;;;28.23;20.60;;;;;;;;;;7740547;23;20743;-52
2022/07/01 02:02:58;;;;;;;27.07;19.83;;;;;;;;;;7737917;23;20023;-50
2022/07/01 02:05:58;;;;;;;24.53;19.93;;;;;;;;;;7736964;23;20051;-49
2022/07/01 02:08:59;;;;;;;24.57;18.87;;;;;;;;;;7739248;23;20107;-50
2022/07/01 02:12:00;;;;;;;24.03;18.67;;;;;;;;;;7737592;23;20020;-49
2022/07/01 02:15:00;;;;;;;26.33;19.03;;;;;;;;;;7740113;23;20042;-49
2022/07/01 02:18:01;;;;;;;28.50;19.33;;;;;;;;;;7739455;23;20456;-52
2022/07/01 02:21:02;;;;;;;23.63;18.73;;;;;;;;;;7738754;23;20027;-51
2022/07/01 02:24:02;;;;;;;23.43;19.43;;;;;;;;;;7736696;23;20567;-50
2022/07/01 02:27:03;;;;;;;23.57;19.10;;;;;;;;;;7738470;23;20024;-48
2022/07/01 02:30:05;;;;;;;25.00;19.80;;;;;;;;;;7738988;23;20360;-52
2022/07/01 02:33:08;;;;;;;26.13;20.52;;;;;;;;;;7738332;23;20242;-50
2022/07/01 02:36:08;;;;;;;27.05;19.45;;;;;;;;;;7739154;23;20020;-50
2022/07/01 02:39:09;;;;;;;26.80;19.83;;;;;;;;;;7737792;23;20091;-50
2022/07/01 02:42:31;;;;;;;28.07;19.87;;;;;;;;;;7739617;23;20545;-49
2022/07/01 02:45:33;;;;;;;28.40;19.20;;;;;;;;;;7740331;23;20027;-49
2022/07/01 02:48:33;;;;;;;25.98;19.40;;;;;;;;;;7738860;23;20027;-52
2022/07/01 02:51:34;;;;;;;26.60;18.63;;;;;;;;;;7742126;23;20380;-52
2022/07/01 02:54:34;;;;;;;26.87;19.10;;;;;;;;;;7743076;23;20047;-50
2022/07/01 02:57:36;;;;;;;26.30;19.90;;;;;;;;;;7746965;23;20398;-51
2022/07/01 03:00:36;;;;;;;29.30;21.17;;;;;;;;;;7739262;23;20024;-52
2022/07/01 03:03:37;;;;;;;30.77;20.77;;;;;;;;;;7738032;23;20027;-49
2022/07/01 03:06:37;;;;;;;27.90;20.00;;;;;;;;;;7741511;23;20024;-50
2022/07/01 03:09:39;;;;;;;28.30;21.83;;;;;;;;;;7738248;23;20021;-50
2022/07/01 03:12:40;;;;;;;28.10;20.80;;;;;;;;;;7740378;23;20023;-50
2022/07/01 03:15:40;;;;;;;26.30;19.73;;;;;;;;;;7741559;23;20419;-50
2022/07/01 03:18:41;;;;;;;26.80;20.00;;;;;;;;;;7739931;23;20080;-49
2022/07/01 03:21:42;;;;;;;29.10;20.00;;;;;;;;;;7742672;23;20024;-49
2022/07/01 03:24:44;;;;;;;26.13;19.00;;;;;;;;;;7742762;23;20020;-49
2022/07/01 03:27:45;;;;;;;23.95;18.45;;;;;;;;;;7738857;23;20761;-49
2022/07/01 03:30:45;;;;;;;27.43;19.03;;;;;;;;;;7740332;23;20086;-52
2022/07/01 03:33:46;;;;;;;24.97;18.97;;;;;;;;;;7740161;23;20107;-50
2022/07/01 03:36:46;;;;;;;30.10;19.37;;;;;;;;;;7742205;23;20095;-50
2022/07/01 03:39:48;;;;;;;23.20;18.00;;;;;;;;;;7741050;23;20012;-51
2022/07/01 03:42:49;;;;;;;20.92;17.35;;;;;;;;;;7738517;23;20099;-49
2022/07/01 03:45:49;;;;;;;25.13;18.20;;;;;;;;;;7741443;23;20340;-50
2022/07/01 03:48:50;;;;;;;24.90;18.13;;;;;;;;;;7743494;23;20016;-52
2022/07/01 03:51:51;;;;;;;24.83;17.70;;;;;;;;;;7746780;23;20450;-51
2022/07/01 03:54:52;;;;;;;23.77;19.63;;;;;;;;;;7745869;23;20039;-49
2022/07/01 03:57:52;;;;;;;23.43;18.50;;;;;;;;;;7757887;23;20087;-51
2022/07/01 04:00:53;;;;;;;24.30;19.23;;;;;;;;;;7743491;23;20020;-52
2022/07/01 04:03:53;;;;;;;27.47;19.47;;;;;;;;;;7739277;23;20078;-49
2022/07/01 04:06:56;;;;;;;30.03;19.70;;;;;;;;;;7741230;23;20070;-52
2022/07/01 04:09:56;;;;;;;26.63;19.98;;;;;;;;;;7743052;23;20020;-50
2022/07/01 04:12:57;;;;;;;26.20;19.47;;;;;;;;;;7746685;23;20376;-54
2022/07/01 04:15:59;;;;;;;26.80;19.93;;;;;;;;;;7744264;23;20698;-50
2022/07/01 04:18:59;;;;;;;26.73;19.38;;;;;;;;;;7740785;23;20031;-51
2022/07/01 04:25:19;;;;;;;29.80;20.10;;;;;;;;;;7713037;23;20103;-52
2022/07/01 04:28:20;;;;;;;25.70;20.03;;;;;;;;;;7745157;23;20335;-52
2022/07/01 04:31:21;;;;;;;31.07;21.50;;;;;;;;;;7745421;23;20016;-47
2022/07/01 04:34:22;;;;;;;28.30;21.17;;;;;;;;;;7746788;23;20020;-49
2022/07/01 04:37:23;;;;;;;29.83;21.20;;;;;;;;;;7745872;23;20016;-47
2022/07/01 04:40:23;;;;;;;29.25;20.02;;;;;;;;;;7739662;23;20020;-48
2022/07/01 04:43:24;;;;;;;30.47;21.33;;;;;;;;;;7736806;23;20070;-48
2022/07/01 04:46:24;;;;;;;28.10;20.57;;;;;;;;;;7737613;23;20063;-48
2022/07/01 04:49:25;;;;;;;32.67;20.40;;;;;;;;;;7743381;23;20112;-47
2022/07/01 04:52:26;;;;;;;28.70;20.38;;;;;;;;;;7741813;23;20020;-47
2022/07/01 04:55:26;;;;;;;29.37;21.03;;;;;;;;;;7743490;23;20051;-48
2022/07/01 04:58:27;;;;;;;29.63;21.00;;;;;;;;;;7746566;23;20091;-47
2022/07/01 05:01:28;;;;;;;26.80;20.50;;;;;;;;;;7742198;23;20019;-51
2022/07/01 05:04:28;;;;;;;27.67;20.88;;;;;;;;;;7758560;23;20024;-50
2022/07/01 05:07:29;;;;;;;27.53;21.57;;;;;;;;;;7745777;23;20366;-49
2022/07/01 05:10:30;;;;;;;28.23;21.40;;;;;;;;;;7746005;23;20465;-48
2022/07/01 05:13:30;;;;;;;29.27;22.00;;;;;;;;;;7741262;23;20027;-48
2022/07/01 05:16:31;;;;;;;28.73;20.77;;;;;;;;;;7736267;23;20019;-48
2022/07/01 05:22:51;;;;;;;31.33;22.08;;;;;;;;;;7742140;23;20020;-49
2022/07/01 05:25:52;;;;;;;32.97;22.30;;;;;;;;;;7742873;23;20448;-51
2022/07/01 05:28:53;;;;;;;31.17;22.13;;;;;;;;;;7745994;23;20016;-48
2022/07/01 05:31:54;;;;;;;29.00;21.55;;;;;;;;;;7744202;23;20020;-47
2022/07/01 05:34:54;;;;;;;28.23;22.90;;;;;;;;;;7740989;23;20051;-49
2022/07/01 05:37:55;;;;;;;32.07;21.70;;;;;;;;;;7744162;23;20050;-51
2022/07/01 05:40:55;;;;;;;27.80;21.47;;;;;;;;;;7744339;23;20023;-48
2022/07/01 05:43:56;;;;;;;32.00;23.87;;;;;;;;;;7742979;23;20039;-49
2022/07/01 05:46:57;;;;;;;28.83;21.73;;;;;;;;;;7744381;23;20032;-48
2022/07/01 05:49:57;;;;;;;29.77;22.70;;;;;;;;;;7746065;23;20016;-49
2022/07/01 05:52:58;;;;;;;29.43;21.30;;;;;;;;;;7743781;23;20146;-47
2022/07/01 05:55:58;;;;;;;32.27;21.07;;;;;;;;;;7739610;23;20020;-48
2022/07/01 05:58:59;;;;;;;24.17;19.30;;;;;;;;;;7739077;23;20027;-51
2022/07/01 06:02:00;;;;;;;25.97;19.87;;;;;;;;;;7739898;23;20024;-47
2022/07/01 06:05:00;;;;;;;32.03;18.90;;;;;;;;;;7743371;23;20020;-47
2022/07/01 06:08:01;;;;;;;24.00;19.10;;;;;;;;;;7745455;23;20332;-49
2022/07/01 06:11:03;;;;;;;24.55;18.60;;;;;;;;;;7746085;23;20020;-50
2022/07/01 06:14:04;;;;;;;28.63;18.95;;;;;;;;;;7739957;23;20352;-50
2022/07/01 06:17:05;;;;;;;25.23;18.77;;;;;;;;;;7741123;23;20024;-49
2022/07/01 06:20:07;;;;;;;23.47;18.97;;;;;;;;;;7741387;23;20047;-50
2022/07/01 06:23:07;;;;;;;22.23;18.75;;;;;;;;;;7743474;23;20020;-49
2022/07/01 06:26:08;;;;;;;24.80;18.77;;;;;;;;;;7741196;23;20023;-48
2022/07/01 06:29:09;;;;;;;25.52;18.52;;;;;;;;;;7716900;23;20020;-48
2022/07/01 06:32:09;;;;;;;25.03;18.03;;;;;;;;;;7740930;23;20462;-48
2022/07/01 06:35:10;;;;;;;27.10;18.93;;;;;;;;;;7741440;23;20030;-50
2022/07/01 06:38:10;;;;;;;22.83;18.50;;;;;;;;;;7743061;23;20023;-47
2022/07/01 06:41:32;;;;;;;23.83;18.53;;;;;;;;;;7741536;23;20022;-51
2022/07/01 06:44:32;;;;;;;22.37;18.30;;;;;;;;;;7741204;23;20245;-51
2022/07/01 06:47:33;;;;;;;25.73;17.13;;;;;;;;;;7743035;23;20051;-48
2022/07/01 06:50:33;;;;;;;23.47;17.10;;;;;;;;;;7739600;23;20576;-48
2022/07/01 06:53:34;;;;;;;23.70;17.40;;;;;;;;;;7741597;23;20027;-49
2022/07/01 06:56:34;;;;;;;25.80;18.10;;;;;;;;;;7742812;23;20024;-48
2022/07/01 06:59:35;;;;;;;21.35;17.67;;;;;;;;;;7740801;23;20020;-48
2022/07/01 07:02:36;;;;;;;23.37;16.90;;;;;;;;;;7738356;23;20095;-50
2022/07/01 07:05:37;;;;;;;19.75;15.15;;;;;;;;;;7738195;23;20016;-50
2022/07/01 07:08:38;;;;;;;18.55;15.90;;;;;;;;;;7741231;23;20403;-48
2022/07/01 07:11:38;;;;;;;22.85;16.50;;;;;;;;;;7742074;23;20525;-49
2022/07/01 07:14:39;;;;;;;23.47;16.60;;;;;;;;;;7739555;23;20028;-48
2022/07/01 07:17:40;;;;;;;20.53;15.83;;;;;;;;;;7738663;23;20616;-50
2022/07/01 07:20:40;;;;;;;21.00;16.50;;;;;;;;;;7742506;23;20044;-49
2022/07/01 07:23:42;;;;;;;22.15;17.08;;;;;;;;;;7741720;23;20016;-47
2022/07/01 07:26:42;;;;;;;19.65;16.05;;;;;;;;;;7741726;23;20020;-51
2022/07/01 07:29:45;;;;;;;19.67;15.07;;;;;;;;;;7740794;23;20028;-50
2022/07/01 07:32:46;;;;;;;24.80;14.93;;;;;;;;;;7740698;23;20451;-48
2022/07/01 07:35:46;;;;;;;16.88;14.85;;;;;;;;;;7740982;23;20119;-49
2022/07/01 07:38:47;;;;;;;23.30;15.77;;;;;;;;;;7740634;23;20027;-48
2022/07/01 07:41:49;;;;;;;19.80;15.60;;;;;;;;;;7713631;23;20040;-50
2022/07/01 07:44:50;;;;;;;21.33;15.90;;;;;;;;;;7740178;23;20023;-48
2022/07/01 07:47:54;;;;;;;20.40;16.10;;;;;;;;;;7741427;23;20471;-50
2022/07/01 07:50:54;;;;;;;17.00;15.20;;;;;;;;;;7738321;23;20092;-49
2022/07/01 07:53:55;;;;;;;22.13;15.82;;;;;;;;;;7738197;23;20447;-51
2022/07/01 07:56:56;;;;;;;19.50;14.07;;;;;;;;;;7741280;23;20020;-48
2022/07/01 07:59:56;;;;;;;21.13;14.55;;;;;;;;;;7739647;23;20016;-48
2022/07/01 08:02:57;;;;;;;19.07;15.30;;;;;;;;;;7741487;23;20016;-48
2022/07/01 08:06:00;;;;;;;21.65;18.08;;;;;;;;;;7740762;23;20276;-48
2022/07/01 08:09:01;;;;;;;17.15;14.32;;;;;;;;;;7742783;23;20020;-52
2022/07/01 08:12:03;;;;;;;20.27;14.70;;;;;;;;;;7739250;23;20051;-48
2022/07/01 08:15:04;;;;;;;19.52;14.88;;;;;;;;;;7739316;23;20507;-52
2022/07/01 08:18:05;;;;;;;;;;;;;;;;;;7738686;23;20024;-48
2022/07/01 08:21:05;;;;;;;21.20;17.20;;;;;;;;;;7739965;23;19943;-49
2022/07/01 08:24:06;;;;;;;21.48;15.13;;;;;;;;;;7740904;23;20469;-48
2022/07/01 08:27:06;;;;;;;18.07;14.47;;;;;;;;;;7741199;23;20118;-51
2022/07/01 08:30:08;;;;;;;20.73;14.80;;;;;;;;;;7739349;23;20020;-48
2022/07/01 08:33:09;;;;;;;19.65;14.40;;;;;;;;;;7740870;23;20348;-49
2022/07/01 08:36:10;;;;;;;18.48;14.77;;;;;;;;;;7739079;23;20107;-52
2022/07/01 08:39:10;;;;;;;17.00;15.15;;;;;;;;;;7706229;23;20485;-49
2022/07/01 08:42:11;;;;;;;19.60;14.90;;;;;;;;;;7739286;23;20020;-49
2022/07/01 08:45:12;;;;;;;19.38;14.70;;;;;;;;;;7740515;23;20321;-49
2022/07/01 08:48:12;;;;;;;19.00;15.52;;;;;;;;;;7739699;23;20102;-51
2022/07/01 08:51:13;;;;;;;17.35;15.38;;;;;;;;;;7739574;23;20095;-49
2022/07/01 08:54:14;;;;;;;20.75;15.63;;;;;;;;;;7741193;23;20035;-49
2022/07/01 08:57:20;;;;;;;17.27;14.75;;;;;;;;;;7739394;23;20020;-48
2022/07/01 09:00:21;;;;;;;22.40;15.75;;;;;;;;;;7738978;23;20464;-47
2022/07/01 09:03:22;;;;;;;18.75;13.55;;;;;;;;;;7741182;23;20020;-48
2022/07/01 09:06:28;;;;;;;19.02;13.60;;;;;;;;;;7740013;23;20020;-50
2022/07/01 09:09:33;;;;;;;18.70;14.35;;;;;;;;;;7740189;23;20016;-50
2022/07/01 09:12:41;;;;;;;17.20;13.50;;;;;;;;;;7740613;23;20378;-47
2022/07/01 09:15:41;;;;;;;22.80;13.18;;;;;;;;;;7740648;23;20024;-48
2022/07/01 09:19:00;;;;;;;17.90;12.88;;;;;;;;;;7739859;23;20024;-49
2022/07/01 09:22:02;;;;;;;16.13;11.65;;;;;;;;;;7738419;23;20038;-47
2022/07/01 09:25:12;;;;;;;13.18;11.35;;;;;;;;;;7740274;23;20020;-49
2022/07/01 09:28:24;;;;;;;18.53;11.57;;;;;;;;;;7740161;23;20099;-48
2022/07/01 09:31:34;;;;;;;14.48;11.57;;;;;;;;;;7744811;23;20023;-47
2022/07/01 09:34:43;;;;;;;16.87;11.67;;;;;;;;;;7742117;23;20022;-48
2022/07/01 09:37:54;;;;;;;21.92;11.90;;;;;;;;;;7742065;23;20020;-46
2022/07/01 09:40:57;;;;;;;13.55;10.90;;;;;;;;;;7739315;23;20087;-47
2022/07/01 09:44:04;;;;;;;16.08;11.50;;;;;;;;;;7739465;23;20035;-46
2022/07/01 09:47:06;;;;;;;15.18;11.75;;;;;;;;;;7739151;23;20032;-48
2022/07/01 09:50:08;;;;;;;15.93;11.13;;;;;;;;;;7742569;23;20020;-48
2022/07/01 09:53:10;;;;;;;15.38;10.93;;;;;;;;;;7741321;23;20016;-47
2022/07/01 09:56:10;;;;;;;13.98;10.88;;;;;;;;;;7747871;23;20771;-47
2022/07/01 09:59:11;;;;;;;;;;;;;;;;;;7743254;23;20070;-48
2022/07/01 10:02:12;;;;;;;12.80;10.43;;;;;;;;;;7739312;23;20137;-53
2022/07/01 10:05:17;;;;;;;14.40;10.32;;;;;;;;;;7739215;23;20059;-48
2022/07/01 10:08:37;;;;;;;14.07;10.32;;;;;;;;;;7741678;23;20368;-48
2022/07/01 10:12:20;;;;;;;13.25;10.38;;;;;;;;;;7742467;23;20336;-48
2022/07/01 10:15:22;;;;;;;16.10;9.65;;;;;;;;;;7750685;23;20133;-48
2022/07/01 10:18:25;;;;;;;14.68;10.30;;;;;;;;;;7738611;23;20324;-48
2022/07/01 10:21:28;;;;;;;13.63;9.77;;;;;;;;;;7742489;23;20023;-47
2022/07/01 10:24:29;;;;;;;16.05;9.25;;;;;;;;;;7742777;23;20020;-50
2022/07/01 10:27:29;;;;;;;;;;;;;;;;;;7740353;23;20350;-51
2022/07/01 10:30:32;;;;;;;16.97;9.57;;;;;;;;;;7742940;23;20402;-51
2022/07/01 10:33:48;;;;;;;13.05;8.90;;;;;;;;;;7747327;23;20616;-52
2022/07/01 10:37:02;;;;;;;13.10;8.68;;;;;;;;;;7746160;23;20512;-51
2022/07/01 10:40:06;;;;;;;13.70;9.27;;;;;;;;;;7745016;23;20093;-49
2022/07/01 10:43:06;;;;;;;16.13;8.52;;;;;;;;;;7745569;23;20016;-48
2022/07/01 10:46:07;;;;;;;;;;;;;;;;;;7746702;23;20027;-49
2022/07/01 10:49:08;;;;;;;15.03;7.23;;;;;;;;;;7743120;23;19993;-48
2022/07/01 10:52:18;;;;;;;12.25;7.70;;;;;;;;;;7726487;23;20026;-49
2022/07/01 10:55:18;;;;;;;17.95;7.57;;;;;;;;;;7740053;23;20347;-46
2022/07/01 10:58:34;;;;;;;;;;;;;;;;;;7731456;23;20018;-48
2022/07/01 11:01:35;;;;;;;11.55;7.32;;;;;;;;;;7726567;23;19938;-47
2022/07/01 11:04:36;;;;;;;;;;;;;;;;;;7729951;23;20313;-48
2022/07/01 11:07:42;;;;;;;13.18;7.18;;;;;;;;;;7731453;23;19968;-47
2022/07/01 11:10:43;;;;;;;12.40;7.28;;;;;;;;;;7726611;23;20387;-47
2022/07/01 11:13:43;;;;;;;13.60;6.85;;;;;;;;;;7728704;23;20052;-46
2022/07/01 11:16:44;;;;;;;;;;;;;;;;;;7728461;23;20020;-47
2022/07/01 11:19:57;;;;;;;9.93;6.57;;;;;;;;;;7739255;23;19926;-54
2022/07/01 11:22:59;;;;;;;10.15;6.43;;;;;;;;;;7728574;23;20027;-47
2022/07/01 11:26:00;;;;;;;11.65;7.00;;;;;;;;;;7730115;23;20567;-48
2022/07/01 11:29:00;;;;;;;10.10;6.80;;;;;;;;;;7737224;23;20016;-46
2022/07/01 11:32:01;;;;;;;;;;;;;;;;;;7738568;23;20100;-48
2022/07/01 11:39:21;;;;;;;10.23;7.20;;;;;;;;;;7737905;23;19919;-48
2022/07/01 11:41:45;;;;;;;13.85;6.90;;;;;;;;;;7736074;23;20027;-50
2022/07/01 11:44:45;;;;;;;11.98;6.53;;;;;;;;;;7736920;23;20020;-48
2022/07/01 11:47:46;;;;;;;13.95;8.15;;;;;;;;;;7737777;23;20744;-52
2022/07/01 11:50:46;;;;;;;;;;;;;;;;;;7736982;23;20046;-48
2022/07/01 11:53:54;;;;;;;10.83;7.13;;;;;;;;;;7737697;23;19927;-48
2022/07/01 11:57:06;;;;;;;11.00;7.07;;;;;;;;;;7736647;23;20601;-48
2022/07/01 12:00:10;;;;;;;12.63;8.38;;;;;;;;;;7729920;23;20027;-47
2022/07/01 12:03:11;;;;;;;12.43;8.45;;;;;;;;;;7727655;23;20020;-48
2022/07/01 12:06:12;;;;;;;12.55;8.80;;;;;;;;;;7726899;23;20776;-49
2022/07/01 12:09:14;;;;;;;10.80;6.82;;;;;;;;;;7728778;23;20020;-47
2022/07/01 12:12:17;;;;;;;8.52;6.32;;;;;;;;;;7729763;23;20024;-48
2022/07/01 12:15:20;;;;;;;11.32;6.75;;;;;;;;;;7727498;23;20094;-51
2022/07/01 12:18:21;;;;;;;11.32;6.88;;;;;;;;;;7729513;23;20020;-47
2022/07/01 12:21:22;;;;;;;12.15;6.70;;;;;;;;;;7725324;23;20442;-49
2022/07/01 12:24:24;;;;;;;8.82;6.50;;;;;;;;;;7729779;23;20043;-47
2022/07/01 12:27:24;;;;;;;9.50;6.30;;;;;;;;;;7726619;23;20050;-50
2022/07/01 12:30:32;;;;;;;11.07;5.88;;;;;;;;;;7727600;23;20484;-47
2022/07/01 12:33:48;;;;;;;10.13;6.15;;;;;;;;;;7729270;23;20672;-47
2022/07/01 12:36:49;;;;;;;12.55;6.75;;;;;;;;;;7729298;23;20024;-50
2022/07/01 12:39:52;;;;;;;9.18;6.65;;;;;;;;;;7727655;23;20022;-48
2022/07/01 12:42:53;;;;;;;9.50;6.60;;;;;;;;;;7726860;23;20024;-46
2022/07/01 12:45:53;;;;;;;9.00;6.25;;;;;;;;;;7729617;23;20032;-49
2022/07/01 12:48:54;;;;;;;14.20;6.47;;;;;;;;;;7727962;23;20478;-47
2022/07/01 12:51:55;;;;;;;9.30;5.95;;;;;;;;;;7724196;23;20691;-47
2022/07/01 12:54:57;;;;;;;8.93;6.25;;;;;;;;;;7726910;23;20039;-47
2022/07/01 12:58:00;;;;;;;8.77;6.10;;;;;;;;;;7727437;23;20031;-47
2022/07/01 13:01:01;;;;;;;12.57;6.82;;;;;;;;;;7727157;23;20059;-46
2022/07/01 13:04:01;;;;;;;11.27;6.47;;;;;;;;;;7729889;23;20396;-50
2022/07/01 13:07:02;;;;;;;10.20;6.15;;;;;;;;;;7733463;23;20070;-49
2022/07/01 13:10:03;;;;;;;10.43;6.38;;;;;;;;;;7728369;23;20087;-50
2022/07/01 13:13:04;;;;;;;15.80;10.23;;;;;;;;;;7734781;23;20073;-47
2022/07/01 13:16:05;;;;;;;13.90;8.57;;;;;;;;;;7737098;23;20024;-49
2022/07/01 13:19:06;;;;;;;10.32;6.30;;;;;;;;;;7736057;23;20020;-48
2022/07/01 13:22:06;;;;;;;8.88;6.13;;;;;;;;;;7733954;23;20024;-49
2022/07/01 13:25:08;;;;;;;11.55;6.13;;;;;;;;;;7736171;23;20423;-48
2022/07/01 13:28:09;;;;;;;10.05;6.40;;;;;;;;;;7736915;23;20030;-50
2022/07/01 13:31:09;;;;;;;9.48;6.13;;;;;;;;;;7727202;23;20019;-47
2022/07/01 13:34:10;;;;;;;11.07;6.82;;;;;;;;;;7728348;23;20059;-50
2022/07/01 13:37:12;;;;;;;9.80;6.38;;;;;;;;;;7727848;23;20024;-49
2022/07/01 13:40:13;;;;;;;9.55;6.82;;;;;;;;;;7726026;23;20028;-48
2022/07/01 13:43:15;;;;;;;10.00;6.25;;;;;;;;;;7728559;23;20030;-50
2022/07/01 13:46:16;;;;;;;9.57;6.65;;;;;;;;;;7727966;23;20464;-48
2022/07/01 13:49:18;;;;;;;7.78;6.15;;;;;;;;;;7724964;23;20468;-49
2022/07/01 13:52:19;;;;;;;8.70;6.50;;;;;;;;;;7729214;23;20070;-49
2022/07/01 13:55:20;;;;;;;8.32;6.47;;;;;;;;;;7729467;23;20024;-47
2022/07/01 13:58:20;;;;;;;12.65;6.78;;;;;;;;;;7728928;23;20099;-48
2022/07/01 14:01:24;;;;;;;10.88;6.70;;;;;;;;;;7727431;23;20016;-50
2022/07/01 14:04:25;;;;;;;10.70;6.47;;;;;;;;;;7728511;23;20016;-48
2022/07/01 14:07:25;;;;;;;10.30;7.28;;;;;;;;;;7727900;23;20211;-46
2022/07/01 14:10:27;;;;;;;13.32;6.60;;;;;;;;;;7726434;23;20016;-48
2022/07/01 14:13:27;;;;;;;10.82;6.90;;;;;;;;;;7728965;23;20056;-47
2022/07/01 14:16:29;;;;;;;10.20;7.30;;;;;;;;;;7727897;23;20104;-47
2022/07/01 14:19:31;;;;;;;9.23;6.80;;;;;;;;;;7727082;23;20338;-47
2022/07/01 14:22:32;;;;;;;11.60;7.35;;;;;;;;;;7729157;23;20098;-54
2022/07/01 14:25:33;;;;;;;11.52;7.05;;;;;;;;;;7727354;23;20054;-56
2022/07/01 14:28:33;;;;;;;11.20;7.40;;;;;;;;;;7728503;23;20570;-45
2022/07/01 14:31:34;;;;;;;10.73;7.22;;;;;;;;;;7725752;23;20028;-50
2022/07/01 14:38:31;;;;;;;10.85;6.90;;;;;;;;;;7726839;23;20085;-49
2022/07/01 14:41:33;;;;;;;10.23;6.57;;;;;;;;;;7726786;23;20067;-51
2022/07/01 14:44:33;;;;;;;10.02;6.30;;;;;;;;;;7729017;23;20760;-47
2022/07/01 14:47:35;;;;;;;11.20;6.50;;;;;;;;;;7730968;23;20062;-48
2022/07/01 14:50:36;;;;;;;9.38;6.60;;;;;;;;;;7728009;23;20023;-48
2022/07/01 14:53:37;;;;;;;9.20;6.60;;;;;;;;;;7734620;23;20101;-48
2022/07/01 14:56:38;;;;;;;8.77;6.95;;;;;;;;;;7735888;23;20027;-49
2022/07/01 14:59:39;;;;;;;8.73;6.55;;;;;;;;;;7727633;23;20488;-52
2022/07/01 15:02:40;;;;;;;13.25;7.15;;;;;;;;;;7735635;23;20026;-52
2022/07/01 15:05:40;;;;;;;10.85;7.15;;;;;;;;;;7732292;23;20107;-51
2022/07/01 15:08:42;;;;;;;9.23;6.60;;;;;;;;;;7732438;23;20024;-54
2022/07/01 15:11:42;;;;;;;8.68;6.55;;;;;;;;;;7734987;23;20020;-48
2022/07/01 15:14:44;;;;;;;12.18;6.65;;;;;;;;;;7735637;23;20873;-52
2022/07/01 15:17:45;;;;;;;9.98;7.35;;;;;;;;;;7738426;23;20107;-49
2022/07/01 15:20:46;;;;;;;12.68;7.38;;;;;;;;;;7735644;23;20097;-51
2022/07/01 15:23:47;;;;;;;10.50;7.22;;;;;;;;;;7738746;23;20020;-53
2022/07/01 15:26:48;;;;;;;9.80;8.02;;;;;;;;;;7736799;23;20020;-47
2022/07/01 15:29:48;;;;;;;12.35;8.27;;;;;;;;;;7735299;23;20024;-49
2022/07/01 15:32:49;;;;;;;13.05;8.10;;;;;;;;;;7738294;23;20026;-53
2022/07/01 15:35:49;;;;;;;14.82;8.30;;;;;;;;;;7736475;23;20043;-49
2022/07/01 15:38:50;;;;;;;13.25;8.60;;;;;;;;;;7737352;23;20054;-52
2022/07/01 15:41:51;;;;;;;15.98;8.50;;;;;;;;;;7734730;23;20123;-55
2022/07/01 15:44:52;;;;;;;12.85;8.05;;;;;;;;;;7737619;23;20019;-51
2022/07/01 15:48:11;;;;;;;11.50;8.43;;;;;;;;;;7738340;23;20034;-49
2022/07/01 15:51:12;;;;;;;11.50;8.85;;;;;;;;;;7733013;23;20043;-46
2022/07/01 15:54:12;;;;;;;11.70;8.73;;;;;;;;;;7736833;23;20020;-47
2022/07/01 15:57:13;;;;;;;11.38;8.82;;;;;;;;;;7736792;23;20020;-49
2022/07/01 16:00:14;;;;;;;12.40;8.90;;;;;;;;;;7735042;23;20024;-51
2022/07/01 16:03:15;;;;;;;14.27;9.25;;;;;;;;;;7735024;23;20123;-48
2022/07/01 16:06:17;;;;;;;13.93;9.23;;;;;;;;;;7734429;23;20103;-48
2022/07/01 16:09:18;;;;;;;11.70;8.45;;;;;;;;;;7736558;23;20024;-51
2022/07/01 16:12:21;;;;;;;10.85;9.07;;;;;;;;;;7736839;23;20020;-47
2022/07/01 16:15:25;;;;;;;11.55;8.57;;;;;;;;;;7734434;23;20046;-48
2022/07/01 16:18:28;;;;;;;14.07;8.60;;;;;;;;;;7736906;23;20020;-54
2022/07/01 16:21:30;;;;;;;10.43;8.85;;;;;;;;;;7734497;23;20020;-53
2022/07/01 16:24:30;;;;;;;12.38;8.85;;;;;;;;;;7732991;23;20048;-52
2022/07/01 16:27:36;;;;;;;17.27;10.00;;;;;;;;;;7734014;23;20034;-49
2022/07/01 16:30:40;;;;;;;16.60;9.93;;;;;;;;;;7732757;23;20028;-49
2022/07/01 16:33:42;;;;;;;13.90;9.23;;;;;;;;;;7737624;23;20044;-48
2022/07/01 16:36:48;;;;;;;13.18;10.00;;;;;;;;;;7735100;23;20118;-50
2022/07/01 16:39:55;;;;;;;11.05;9.45;;;;;;;;;;7734904;23;20039;-48
2022/07/01 16:42:56;;;;;;;14.30;10.10;;;;;;;;;;7736629;23;20024;-57
2022/07/01 16:45:57;;;;;;;14.90;10.32;;;;;;;;;;7736718;23;20082;-50
2022/07/01 16:49:01;;;;;;;17.17;10.27;;;;;;;;;;7736850;23;20874;-49
2022/07/01 16:52:08;;;;;;;14.93;10.20;;;;;;;;;;7734384;23;20047;-55
2022/07/01 16:55:12;;;;;;;13.77;10.38;;;;;;;;;;7737323;23;20887;-46
2022/07/01 16:58:23;;;;;;;18.98;10.90;;;;;;;;;;7735937;23;20031;-48
2022/07/01 17:01:26;;;;;;;13.90;9.93;;;;;;;;;;7733034;23;20016;-48
2022/07/01 17:04:26;;;;;;;15.70;10.65;;;;;;;;;;7732720;23;20023;-48
2022/07/01 17:07:27;;;;;;;;;;;;;;;;;;7732872;23;20438;-51
2022/07/01 17:10:29;;;;;;;14.43;10.13;;;;;;;;;;7731966;23;20395;-53
2022/07/01 17:13:30;;;;;;;15.27;10.80;;;;;;;;;;7733707;23;20024;-49
2022/07/01 17:16:32;;;;;;;;;;;;;;;;;;7735954;23;20341;-54
2022/07/01 17:19:32;;;;;;;;;;;;;;;;;;7733692;23;19945;-52
2022/07/01 17:22:55;;;;;;;15.10;11.53;;;;;;;;;;7733521;23;19925;-52
2022/07/01 17:25:57;;;;;;;16.77;12.57;;;;;;;;;;7734373;23;20059;-46
2022/07/01 17:29:21;;;;;;;24.95;13.52;;;;;;;;;;7734494;23;20093;-50
2022/07/01 17:32:31;;;;;;;20.67;13.60;;;;;;;;;;7734414;23;20065;-47
2022/07/01 17:35:34;;;;;;;27.30;14.35;;;;;;;;;;7734675;23;20451;-52
2022/07/01 17:38:45;;;;;;;23.35;14.48;;;;;;;;;;7733937;23;20048;-52
2022/07/01 17:41:51;;;;;;;25.30;14.85;;;;;;;;;;7730836;23;20019;-48
2022/07/01 17:44:53;;;;;;;18.38;14.80;;;;;;;;;;7733928;23;20028;-52
2022/07/01 17:47:55;;;;;;;25.52;14.95;;;;;;;;;;7734022;23;20126;-52
2022/07/01 17:50:56;;;;;;;23.02;15.70;;;;;;;;;;7733837;23;20090;-50
2022/07/01 17:53:57;;;;;;;18.45;15.55;;;;;;;;;;7735653;23;20031;-48
2022/07/01 17:56:58;;;;;;;;;;;;;;;;;;7736096;23;20766;-51
2022/07/01 18:00:00;;;;;;;22.10;14.23;;;;;;;;;;7733710;23;19920;-56
2022/07/01 18:03:02;;;;;;;20.63;14.27;;;;;;;;;;7734998;23;20016;-56
2022/07/01 18:06:04;;;;;;;21.15;14.25;;;;;;;;;;7734932;23;20024;-56
2022/07/01 18:09:05;;;;;;;18.17;14.95;;;;;;;;;;7735095;23;20032;-52